Time;durP1;ratioP1;P1;durP2;ratioP2;P2;SDS_P1;SDS_P2;PMS_P1;PMS_P2;Temp;Humidity;BMP_temperature;BMP_pressure;BME280_temperature;BME280_humidity;BME280_pressure;Samples;Min_cycle;Max_cycle;Signal;HPM_P1;HPM_P2
2023/12/29 00:00:23;;;;;;;8.03;1.80;;;10.80;77.60;;;;;;4974965;28;20529;-76
2023/12/29 00:02:50;;;;;;;8.40;2.10;;;10.80;77.60;;;;;;4973225;28;20463;-77
2023/12/29 00:05:18;;;;;;;8.50;2.83;;;10.80;77.60;;;;;;4972256;28;20455;-78
2023/12/29 00:07:45;;;;;;;13.70;2.30;;;10.70;77.50;;;;;;4974622;28;20463;-80
2023/12/29 00:10:12;;;;;;;12.23;2.20;;;10.70;77.50;;;;;;4974586;28;20458;-77
2023/12/29 00:12:39;;;;;;;7.70;1.90;;;10.70;77.50;;;;;;4977031;28;20484;-76
2023/12/29 00:15:06;;;;;;;6.47;1.63;;;10.70;77.50;;;;;;4976124;28;20458;-77
2023/12/29 00:17:36;;;;;;;7.93;1.67;;;10.80;77.60;;;;;;4978440;28;20457;-77
2023/12/29 00:20:04;;;;;;;9.40;2.80;;;10.80;77.60;;;;;;4978420;28;21002;-77
2023/12/29 00:22:32;;;;;;;6.73;2.43;;;10.80;77.60;;;;;;4977644;28;20450;-75
2023/12/29 00:24:59;;;;;;;12.80;4.23;;;10.80;77.60;;;;;;4975883;28;20457;-76
2023/12/29 00:27:26;;;;;;;8.13;2.73;;;10.80;77.50;;;;;;4978341;28;20446;-76
2023/12/29 00:29:53;;;;;;;5.83;1.77;;;10.80;78.30;;;;;;4979060;28;20455;-76
2023/12/29 00:32:20;;;;;;;9.97;2.00;;;10.90;77.60;;;;;;4977263;28;20493;-76
2023/12/29 00:34:46;;;;;;;8.07;2.00;;;10.90;77.20;;;;;;4975549;28;20550;-77
2023/12/29 00:37:13;;;;;;;9.27;2.37;;;10.90;75.80;;;;;;4978514;28;20473;-76
2023/12/29 00:39:41;;;;;;;5.03;1.40;;;10.80;78.30;;;;;;4978041;28;20451;-76
2023/12/29 00:42:08;;;;;;;8.53;2.37;;;10.80;77.50;;;;;;4977761;28;20447;-76
2023/12/29 00:44:36;;;;;;;6.30;1.87;;;10.80;77.60;;;;;;4975630;28;21584;-77
2023/12/29 00:47:03;;;;;;;7.40;1.90;;;10.90;76.10;;;;;;4977885;28;20450;-77
2023/12/29 00:49:29;;;;;;;7.77;2.30;;;10.90;75.90;;;;;;4978202;28;20545;-77
2023/12/29 00:51:56;;;;;;;7.40;1.73;;;10.80;77.60;;;;;;4978208;28;20467;-77
2023/12/29 00:54:23;;;;;;;5.77;2.20;;;10.80;77.50;;;;;;4975405;28;20451;-76
2023/12/29 00:56:52;;;;;;;5.20;1.67;;;10.80;77.50;;;;;;4957846;29;20455;-77
2023/12/29 00:59:20;;;;;;;12.37;2.57;;;10.80;77.60;;;;;;4958748;29;20880;-76
2023/12/29 01:01:47;;;;;;;9.13;1.70;;;10.80;77.60;;;;;;4958340;29;20511;-76
2023/12/29 01:04:14;;;;;;;7.30;1.87;;;10.80;77.60;;;;;;4962061;28;20454;-76
2023/12/29 01:06:40;;;;;;;6.70;1.80;;;10.80;77.60;;;;;;4977324;28;20461;-76
2023/12/29 01:09:08;;;;;;;10.73;2.90;;;10.80;77.50;;;;;;4977794;28;20454;-77
2023/12/29 01:11:35;;;;;;;21.13;2.30;;;10.80;77.60;;;;;;4977477;28;20533;-76
2023/12/29 01:14:04;;;;;;;7.70;1.70;;;10.80;77.60;;;;;;4975495;28;20458;-77
2023/12/29 01:16:30;;;;;;;10.10;2.63;;;10.70;77.50;;;;;;4976870;28;20462;-76
2023/12/29 01:18:57;;;;;;;6.07;1.70;;;10.70;77.50;;;;;;4977625;28;20451;-76
2023/12/29 01:21:24;;;;;;;13.00;3.97;;;10.70;77.50;;;;;;4977161;28;20455;-77
2023/12/29 01:23:51;;;;;;;11.30;2.53;;;10.80;77.60;;;;;;4974443;28;20459;-77
2023/12/29 01:26:18;;;;;;;7.00;2.30;;;10.70;77.50;;;;;;4975685;28;21028;-76
2023/12/29 01:28:45;;;;;;;12.10;2.27;;;10.70;77.50;;;;;;4977144;28;20458;-77
2023/12/29 01:31:13;;;;;;;14.47;2.63;;;10.70;77.50;;;;;;4977049;28;20510;-77
2023/12/29 01:33:40;;;;;;;10.63;2.40;;;10.70;77.50;;;;;;4974922;28;20447;-77
2023/12/29 01:36:07;;;;;;;6.27;2.00;;;10.70;77.50;;;;;;4975637;28;20453;-76
2023/12/29 01:38:34;;;;;;;16.37;2.10;;;10.70;77.50;;;;;;4977190;28;20451;-77
2023/12/29 01:41:01;;;;;;;10.60;2.77;;;10.80;77.60;;;;;;4977502;28;20461;-77
2023/12/29 01:43:28;;;;;;;6.27;1.97;;;10.70;77.50;;;;;;4975319;28;20554;-76
2023/12/29 01:45:54;;;;;;;9.17;2.20;;;10.70;77.50;;;;;;4975337;28;20477;-77
2023/12/29 01:48:23;;;;;;;8.60;2.30;;;10.70;77.50;;;;;;4977118;28;20451;-76
2023/12/29 01:50:50;;;;;;;14.00;2.33;;;10.70;77.60;;;;;;4977063;28;20451;-76
2023/12/29 01:53:17;;;;;;;11.83;2.40;;;10.70;77.50;;;;;;4975297;28;20996;-76
2023/12/29 01:55:44;;;;;;;13.17;2.70;;;10.60;77.40;;;;;;4975376;28;20451;-77
2023/12/29 01:58:11;;;;;;;5.03;1.73;;;10.60;78.30;;;;;;4976556;28;20469;-76
2023/12/29 02:00:38;;;;;;;9.40;2.77;;;10.50;77.40;;;;;;4976599;28;20457;-76
2023/12/29 02:03:05;;;;;;;8.27;2.30;;;10.40;77.30;;;;;;4974921;28;20443;-75
2023/12/29 02:05:36;;;;;;;7.30;2.40;;;10.50;77.40;;;;;;4974660;28;20458;-76
2023/12/29 02:08:03;;;;;;;14.40;2.67;;;10.40;77.30;;;;;;4976747;28;20443;-76
2023/12/29 02:10:30;;;;;;;9.77;2.53;;;10.40;77.30;;;;;;4976665;28;20461;-76
2023/12/29 02:13:00;;;;;;;7.30;2.10;;;10.50;77.40;;;;;;4974739;28;20475;-76
2023/12/29 02:15:27;;;;;;;8.03;3.20;;;10.50;77.40;;;;;;4974375;28;20955;-76
2023/12/29 02:18:01;;;;;;;12.80;3.30;;;10.50;77.40;;;;;;4976577;28;20457;-77
2023/12/29 02:20:28;;;;;;;9.97;2.47;;;10.50;77.40;;;;;;4976273;28;20438;-76
2023/12/29 02:22:56;;;;;;;7.57;2.60;;;10.50;77.50;;;;;;4974685;28;20927;-76
2023/12/29 02:25:24;;;;;;;6.93;2.43;;;10.40;80.00;;;;;;4973891;28;20855;-76
2023/12/29 02:27:57;;;;;;;9.50;3.40;;;10.40;83.90;;;;;;4976058;28;20459;-76
2023/12/29 02:30:28;;;;;;;9.53;3.30;;;10.30;91.10;;;;;;4976360;28;20450;-76
2023/12/29 02:32:59;;;;;;;6.77;2.80;;;10.20;91.00;;;;;;4974357;28;20471;-76
2023/12/29 02:35:29;;;;;;;7.80;2.70;;;10.20;91.00;;;;;;4963176;28;20935;-76
2023/12/29 02:37:57;;;;;;;10.73;3.23;;;10.20;91.00;;;;;;4976217;28;20461;-76
2023/12/29 02:40:27;;;;;;;7.00;4.50;;;10.10;91.00;;;;;;4975838;28;20455;-76
2023/12/29 02:42:53;;;;;;;9.77;6.80;;;10.00;91.00;;;;;;4974439;28;20453;-75
2023/12/29 02:45:20;;;;;;;9.67;7.20;;;9.90;92.00;;;;;;4973567;28;20447;-76
2023/12/29 02:47:48;;;;;;;7.63;6.93;;;10.00;91.70;;;;;;4976008;28;20474;-76
2023/12/29 02:50:15;;;;;;;14.90;8.33;;;10.00;91.00;;;;;;4975997;28;20477;-76
2023/12/29 02:52:42;;;;;;;10.83;7.40;;;9.90;91.40;;;;;;4974753;28;20482;-76
2023/12/29 02:55:09;;;;;;;12.87;7.03;;;10.00;91.00;;;;;;4973193;28;20446;-76
2023/12/29 02:57:38;;;;;;;14.50;8.07;;;10.00;91.00;;;;;;4975490;28;20463;-76
2023/12/29 03:00:07;;;;;;;12.80;6.57;;;10.00;91.60;;;;;;4975520;28;20455;-76
2023/12/29 03:02:34;;;;;;;12.70;6.73;;;10.00;91.00;;;;;;4973255;28;20469;-76
2023/12/29 03:05:01;;;;;;;11.97;7.50;;;10.10;91.00;;;;;;4973187;28;20451;-75
2023/12/29 03:07:28;;;;;;;9.93;7.30;;;10.00;91.00;;;;;;4975638;28;20446;-76
2023/12/29 03:09:55;;;;;;;11.57;6.93;;;10.00;91.80;;;;;;4975317;28;20530;-76
2023/12/29 03:12:22;;;;;;;7.37;5.77;;;10.00;91.00;;;;;;4974633;28;20573;-76
2023/12/29 03:14:50;;;;;;;7.70;5.20;;;9.90;91.40;;;;;;4972894;28;20447;-76
2023/12/29 03:17:17;;;;;;;12.90;5.43;;;10.00;91.00;;;;;;4975391;28;20455;-77
2023/12/29 03:19:44;;;;;;;5.70;4.20;;;10.00;91.00;;;;;;4975157;28;21010;-76
2023/12/29 03:22:11;;;;;;;7.10;3.60;;;10.10;91.00;;;;;;4974528;28;20451;-76
2023/12/29 03:24:38;;;;;;;10.33;4.10;;;10.10;91.00;;;;;;4972718;28;20505;-76
2023/12/29 03:27:05;;;;;;;8.10;4.63;;;10.10;91.00;;;;;;4974931;28;20469;-77
2023/12/29 03:29:32;;;;;;;8.03;2.87;;;10.10;91.00;;;;;;4975221;28;20458;-75
2023/12/29 03:32:00;;;;;;;5.40;3.00;;;10.20;91.10;;;;;;4974649;28;20919;-76
2023/12/29 03:34:27;;;;;;;9.97;4.10;;;10.20;91.00;;;;;;4972109;28;20470;-76
2023/12/29 03:36:53;;;;;;;8.83;4.53;;;10.20;91.00;;;;;;4974586;28;20451;-76
2023/12/29 03:39:20;;;;;;;13.57;4.80;;;10.10;91.00;;;;;;4974866;28;20461;-76
2023/12/29 03:41:47;;;;;;;7.10;3.93;;;10.10;91.00;;;;;;4974507;28;20470;-76
2023/12/29 03:44:15;;;;;;;11.83;3.30;;;10.10;91.00;;;;;;4971519;28;20935;-76
2023/12/29 03:46:42;;;;;;;14.80;4.00;;;10.30;91.10;;;;;;4974605;28;20971;-76
2023/12/29 03:49:10;;;;;;;7.70;2.80;;;10.30;91.00;;;;;;4974813;28;21013;-75
2023/12/29 03:51:37;;;;;;;5.60;2.50;;;10.30;90.90;;;;;;4974825;28;20450;-76
2023/12/29 03:54:04;;;;;;;10.50;2.77;;;10.30;90.30;;;;;;4971047;28;20451;-76
2023/12/29 03:56:31;;;;;;;11.67;2.90;;;10.30;90.60;;;;;;4973285;28;20943;-76
2023/12/29 03:58:58;;;;;;;5.00;2.50;;;10.30;88.30;;;;;;4974614;28;20462;-76
2023/12/29 04:01:27;;;;;;;8.83;2.80;;;10.30;86.00;;;;;;4974982;28;20460;-75
2023/12/29 04:03:54;;;;;;;6.90;2.50;;;10.40;85.20;;;;;;4972420;28;20451;-75
2023/12/29 04:06:22;;;;;;;9.43;3.00;;;10.40;86.10;;;;;;4973093;28;20458;-76
2023/12/29 04:08:49;;;;;;;11.20;2.93;;;10.40;85.10;;;;;;4974552;28;20455;-76
2023/12/29 04:11:16;;;;;;;10.30;2.70;;;10.50;85.10;;;;;;4974552;28;20544;-76
2023/12/29 04:13:42;;;;;;;7.97;2.50;;;10.50;85.20;;;;;;4972227;28;20589;-76
2023/12/29 04:16:09;;;;;;;12.00;2.73;;;10.50;85.10;;;;;;4972526;28;20447;-76
2023/12/29 04:18:36;;;;;;;5.43;2.20;;;10.50;85.10;;;;;;4974772;28;20457;-76
2023/12/29 04:21:03;;;;;;;7.97;2.00;;;10.50;85.10;;;;;;4974452;28;20454;-76
2023/12/29 04:23:31;;;;;;;10.40;2.30;;;10.60;85.20;;;;;;4972740;28;20510;-76
2023/12/29 04:25:58;;;;;;;6.90;2.67;;;10.60;85.20;;;;;;4972975;28;20461;-76
2023/12/29 04:28:25;;;;;;;7.60;2.33;;;10.70;85.30;;;;;;4974424;28;20509;-76
2023/12/29 04:30:51;;;;;;;7.10;2.40;;;10.60;85.20;;;;;;4974893;28;20559;-75
2023/12/29 04:33:18;;;;;;;6.20;2.63;;;10.70;84.90;;;;;;4972859;28;20479;-76
2023/12/29 04:35:45;;;;;;;7.57;2.67;;;10.70;84.30;;;;;;4972714;28;20462;-76
2023/12/29 04:38:12;;;;;;;8.23;2.40;;;10.70;83.90;;;;;;4974320;28;20459;-76
2023/12/29 04:40:40;;;;;;;10.23;2.43;;;10.60;85.20;;;;;;4974609;28;20455;-76
2023/12/29 04:43:07;;;;;;;6.77;2.13;;;10.40;85.00;;;;;;4972906;28;20554;-76
2023/12/29 04:45:33;;;;;;;8.30;2.37;;;10.40;84.90;;;;;;4972207;28;20474;-76
2023/12/29 04:48:00;;;;;;;9.50;2.27;;;10.30;85.00;;;;;;4974203;28;20947;-76
2023/12/29 04:50:27;;;;;;;7.63;2.27;;;10.30;84.90;;;;;;4974501;28;20451;-75
2023/12/29 04:52:54;;;;;;;13.33;2.17;;;10.30;84.90;;;;;;4973047;28;20491;-75
2023/12/29 04:55:21;;;;;;;9.87;2.80;;;10.20;84.90;;;;;;4972052;28;20939;-75
2023/12/29 04:57:49;;;;;;;8.13;4.40;;;10.20;84.80;;;;;;4975941;28;20470;-76
2023/12/29 05:00:16;;;;;;;8.83;3.10;;;10.10;84.80;;;;;;4978249;28;20453;-77
2023/12/29 05:02:43;;;;;;;6.00;2.37;;;10.20;84.90;;;;;;4976797;28;20454;-75
2023/12/29 05:05:10;;;;;;;7.97;3.10;;;10.10;84.80;;;;;;4974796;28;20463;-76
2023/12/29 05:07:37;;;;;;;5.50;2.90;;;10.20;84.90;;;;;;4978559;28;20936;-75
2023/12/29 05:10:04;;;;;;;7.57;2.47;;;10.10;84.80;;;;;;4977570;28;20454;-75
2023/12/29 05:12:31;;;;;;;7.77;2.80;;;10.20;84.90;;;;;;4976270;28;20982;-76
2023/12/29 05:14:59;;;;;;;10.90;2.40;;;10.20;84.90;;;;;;4974068;28;20454;-76
2023/12/29 05:17:26;;;;;;;9.60;2.60;;;10.20;85.00;;;;;;4977358;28;20461;-75
2023/12/29 05:19:53;;;;;;;10.27;2.90;;;10.20;84.90;;;;;;4977335;28;20936;-75
2023/12/29 05:22:20;;;;;;;10.43;2.87;;;10.30;84.70;;;;;;4976813;28;20458;-75
2023/12/29 05:24:46;;;;;;;9.93;2.40;;;10.20;84.80;;;;;;4975023;28;20821;-75
2023/12/29 05:27:13;;;;;;;6.70;2.60;;;10.20;84.80;;;;;;4977351;28;20458;-75
2023/12/29 05:29:40;;;;;;;10.63;3.33;;;10.10;84.80;;;;;;4977424;28;20451;-76
2023/12/29 05:32:09;;;;;;;9.33;2.47;;;10.10;84.80;;;;;;4976421;28;20455;-75
2023/12/29 05:34:36;;;;;;;8.47;2.60;;;10.10;84.70;;;;;;4974333;28;20454;-76
2023/12/29 05:37:03;;;;;;;5.33;2.23;;;10.00;84.70;;;;;;4977027;28;20486;-76
2023/12/29 05:39:30;;;;;;;6.53;2.07;;;10.00;84.70;;;;;;4977004;28;20939;-76
2023/12/29 05:41:57;;;;;;;15.33;6.03;;;10.00;84.70;;;;;;4976788;28;20455;-76
2023/12/29 05:44:24;;;;;;;6.53;2.03;;;10.10;82.70;;;;;;4974209;28;20957;-75
2023/12/29 05:46:51;;;;;;;7.37;2.37;;;10.10;82.10;;;;;;4976326;28;20451;-76
2023/12/29 05:49:19;;;;;;;6.77;2.13;;;10.10;80.90;;;;;;4976848;28;20450;-75
2023/12/29 05:51:46;;;;;;;11.50;2.43;;;10.10;81.00;;;;;;4977105;28;20463;-75
2023/12/29 05:54:13;;;;;;;7.27;2.10;;;10.00;81.70;;;;;;4974303;28;20487;-76
2023/12/29 05:56:39;;;;;;;11.20;2.57;;;10.10;82.70;;;;;;4976215;28;20562;-76
2023/12/29 05:59:06;;;;;;;9.97;2.37;;;10.00;84.60;;;;;;4976644;28;20458;-76
2023/12/29 06:01:33;;;;;;;6.23;2.10;;;10.00;84.10;;;;;;4976837;28;20451;-75
2023/12/29 06:04:00;;;;;;;7.83;2.63;;;10.00;84.60;;;;;;4974485;28;20447;-76
2023/12/29 06:06:28;;;;;;;12.83;2.70;;;10.00;84.70;;;;;;4975621;28;20447;-76
2023/12/29 06:08:55;;;;;;;10.43;2.70;;;9.90;85.50;;;;;;4975309;28;20947;-76
2023/12/29 06:11:22;;;;;;;7.50;2.97;;;9.90;85.50;;;;;;4976745;28;20461;-76
2023/12/29 06:13:49;;;;;;;7.73;2.37;;;9.90;85.50;;;;;;4973904;28;20483;-76
2023/12/29 06:16:19;;;;;;;8.47;2.63;;;9.90;85.60;;;;;;4975393;28;20457;-75
2023/12/29 06:18:47;;;;;;;7.67;2.30;;;9.90;85.60;;;;;;4976245;28;20459;-75
2023/12/29 06:21:13;;;;;;;7.47;4.57;;;9.80;85.50;;;;;;4976564;28;20818;-76
2023/12/29 06:23:42;;;;;;;9.43;2.67;;;9.90;85.50;;;;;;4973345;28;20447;-76
2023/12/29 06:26:15;;;;;;;8.53;4.40;;;9.90;85.50;;;;;;4974506;28;20457;-76
2023/12/29 06:28:42;;;;;;;20.03;3.40;;;9.80;85.40;;;;;;4976433;28;20439;-76
2023/12/29 06:31:09;;;;;;;10.00;4.13;;;9.80;85.50;;;;;;4975760;28;20819;-79
2023/12/29 06:33:36;;;;;;;9.80;3.90;;;9.80;85.70;;;;;;4973893;28;20515;-79
2023/12/29 06:36:07;;;;;;;9.47;4.10;;;9.90;85.60;;;;;;4973528;28;20866;-78
2023/12/29 06:38:34;;;;;;;7.63;2.97;;;9.90;85.60;;;;;;4973721;28;20451;-78
2023/12/29 06:41:04;;;;;;;7.50;3.07;;;9.90;85.60;;;;;;4973041;28;20455;-78
2023/12/29 06:43:31;;;;;;;8.07;3.10;;;10.00;84.70;;;;;;4972752;28;20450;-78
2023/12/29 06:45:58;;;;;;;6.90;3.27;;;9.90;87.00;;;;;;4973053;28;20534;-78
2023/12/29 06:48:25;;;;;;;11.90;3.37;;;9.90;88.90;;;;;;4973076;28;20529;-79
2023/12/29 06:50:52;;;;;;;8.33;3.53;;;9.80;91.20;;;;;;4972965;28;20447;-78
2023/12/29 06:53:18;;;;;;;10.50;5.00;;;9.80;91.60;;;;;;4973268;28;21138;-78
2023/12/29 06:55:45;;;;;;;6.53;4.50;;;9.80;91.30;;;;;;4972617;28;20542;-78
2023/12/29 06:58:13;;;;;;;10.43;5.40;;;9.80;91.30;;;;;;4972333;28;20927;-78
2023/12/29 07:00:40;;;;;;;12.50;5.80;;;9.80;91.30;;;;;;4973587;28;20473;-79
2023/12/29 07:03:07;;;;;;;11.37;6.20;;;9.80;91.30;;;;;;4973666;28;20447;-79
2023/12/29 07:05:34;;;;;;;10.67;7.10;;;9.90;91.70;;;;;;4972005;28;20439;-79
2023/12/29 07:08:01;;;;;;;9.53;5.43;;;9.90;91.40;;;;;;4972544;28;20538;-79
2023/12/29 07:10:28;;;;;;;10.27;6.50;;;9.90;91.40;;;;;;4973266;28;20451;-80
2023/12/29 07:12:58;;;;;;;10.00;5.47;;;9.90;91.40;;;;;;4972943;28;20492;-78
2023/12/29 07:15:26;;;;;;;9.00;5.60;;;9.90;91.40;;;;;;4973085;28;20490;-79
2023/12/29 07:17:53;;;;;;;5.70;4.30;;;10.00;91.00;;;;;;4972377;28;20537;-78
2023/12/29 07:20:20;;;;;;;7.90;5.20;;;10.00;91.00;;;;;;4972034;28;20451;-79
2023/12/29 07:22:47;;;;;;;16.20;5.40;;;9.90;91.40;;;;;;4972887;28;20482;-79
2023/12/29 07:25:14;;;;;;;9.47;6.00;;;9.90;91.40;;;;;;4972857;28;20457;-79
2023/12/29 07:27:41;;;;;;;12.30;6.00;;;9.90;91.40;;;;;;4972880;28;20451;-79
2023/12/29 07:30:09;;;;;;;13.40;7.27;;;9.90;91.40;;;;;;4973040;28;20455;-80
2023/12/29 07:32:37;;;;;;;6.70;5.90;;;10.00;91.00;;;;;;4972764;28;20447;-79
2023/12/29 07:35:05;;;;;;;11.20;6.43;;;10.00;91.00;;;;;;4972628;28;20482;-78
2023/12/29 07:37:32;;;;;;;12.00;5.70;;;10.10;91.00;;;;;;4972883;28;20450;-79
2023/12/29 07:39:59;;;;;;;9.20;5.70;;;10.10;91.00;;;;;;4972584;28;20542;-79
2023/12/29 07:42:26;;;;;;;7.80;5.50;;;10.20;91.00;;;;;;4972862;28;20451;-78
2023/12/29 07:44:55;;;;;;;8.73;5.90;;;10.20;91.00;;;;;;4972602;28;20880;-79
2023/12/29 07:47:22;;;;;;;10.00;6.67;;;10.20;91.10;;;;;;4972680;28;20542;-79
2023/12/29 07:49:50;;;;;;;17.93;16.97;;;10.10;92.50;;;;;;4973057;28;20450;-77
2023/12/29 07:52:17;;;;;;;51.93;49.03;;;9.90;98.00;;;;;;4973103;28;20566;-79
2023/12/29 07:54:44;;;;;;;70.00;66.73;;;9.60;99.90;;;;;;4972751;28;20485;-80
2023/12/29 07:57:11;;;;;;;120.97;116.47;;;9.50;99.90;;;;;;4973108;28;20553;-78
2023/12/29 07:59:38;;;;;;;327.60;318.13;;;9.30;99.90;;;;;;4972878;28;20451;-78
2023/12/29 08:02:05;;;;;;;452.03;438.23;;;9.20;99.90;;;;;;4972851;28;20537;-78
2023/12/29 08:04:32;;;;;;;433.80;420.23;;;9.20;99.90;;;;;;4973139;28;20458;-77
2023/12/29 08:07:01;;;;;;;533.93;515.67;;;9.20;99.90;;;;;;4972824;28;20537;-77
2023/12/29 08:09:28;;;;;;;612.07;588.30;;;9.20;99.90;;;;;;4972497;28;20545;-78
2023/12/29 08:11:55;;;;;;;678.57;647.27;;;9.20;99.90;;;;;;4972519;28;20946;-78
2023/12/29 08:14:22;;;;;;;725.43;689.20;;;9.20;99.90;;;;;;4972372;28;20489;-77
2023/12/29 08:16:49;;;;;;;720.70;684.70;;;9.10;99.90;;;;;;4972389;28;20459;-77
2023/12/29 08:19:16;;;;;;;748.40;708.33;;;9.10;99.90;;;;;;4972483;28;20500;-76
2023/12/29 08:21:43;;;;;;;781.33;735.90;;;9.10;99.90;;;;;;4972381;28;20977;-76
2023/12/29 08:24:12;;;;;;;800.77;753.60;;;9.00;99.90;;;;;;4972396;28;20560;-76
2023/12/29 08:26:46;;;;;;;817.30;767.60;;;9.00;99.90;;;;;;4972008;28;20950;-76
2023/12/29 08:29:13;;;;;;;842.07;787.40;;;9.00;99.90;;;;;;4969548;28;20538;-76
2023/12/29 08:31:39;;;;;;;845.60;788.33;;;9.00;99.90;;;;;;4971719;28;20541;-76
2023/12/29 08:34:06;;;;;;;840.43;783.97;;;9.00;99.90;;;;;;4975117;28;20482;-76
2023/12/29 08:36:33;;;;;;;849.33;791.30;;;9.00;99.90;;;;;;4975554;28;20870;-75
2023/12/29 08:39:00;;;;;;;857.30;796.80;;;9.10;99.90;;;;;;4975273;28;20454;-75
2023/12/29 08:41:28;;;;;;;854.80;793.80;;;9.10;99.90;;;;;;4973853;28;20490;-76
2023/12/29 08:43:55;;;;;;;840.73;784.53;;;9.10;99.90;;;;;;4974062;28;20534;-76
2023/12/29 08:46:22;;;;;;;840.17;782.77;;;9.10;99.90;;;;;;4973714;28;20459;-76
2023/12/29 08:48:49;;;;;;;848.77;790.20;;;9.20;99.90;;;;;;4974035;28;20451;-76
2023/12/29 08:51:16;;;;;;;847.10;787.90;;;9.10;99.90;;;;;;4974428;28;20455;-76
2023/12/29 08:53:43;;;;;;;871.23;811.17;;;9.10;99.90;;;;;;4974384;28;20479;-76
2023/12/29 08:56:10;;;;;;;854.13;794.10;;;9.10;99.90;;;;;;4974867;28;20538;-77
2023/12/29 08:58:38;;;;;;;883.85;815.08;;;9.00;99.90;;;;;;4974639;28;20472;-76
2023/12/29 09:01:04;;;;;;;868.03;801.77;;;9.00;99.90;;;;;;4975875;28;20287;-76
2023/12/29 09:03:31;;;;;;;873.47;805.23;;;9.00;99.90;;;;;;4975109;28;20561;-76
2023/12/29 09:05:58;;;;;;;866.63;801.70;;;9.00;99.90;;;;;;4975490;28;20537;-76
2023/12/29 09:08:26;;;;;;;859.97;794.67;;;9.00;99.90;;;;;;4975404;28;20931;-76
2023/12/29 09:10:53;;;;;;;858.37;790.37;;;9.00;99.90;;;;;;4975354;28;20546;-76
2023/12/29 09:13:22;;;;;;;854.93;788.43;;;9.10;99.90;;;;;;4975232;28;20585;-76
2023/12/29 09:15:50;;;;;;;844.57;778.57;;;9.10;99.90;;;;;;4975035;28;20537;-76
2023/12/29 09:18:17;;;;;;;853.40;784.80;;;9.10;99.90;;;;;;4974653;28;20990;-76
2023/12/29 09:20:44;;;;;;;868.10;796.90;;;9.30;99.90;;;;;;4975109;28;21010;-76
2023/12/29 09:23:11;;;;;;;848.70;781.70;;;9.40;99.90;;;;;;4975276;28;20510;-76
2023/12/29 09:25:38;;;;;;;850.77;784.30;;;9.40;99.90;;;;;;4975005;28;20447;-76
2023/12/29 09:28:05;;;;;;;841.70;774.97;;;9.40;99.90;;;;;;4975415;28;20453;-81
2023/12/29 09:30:32;;;;;;;829.70;765.90;;;9.50;99.90;;;;;;4975098;28;20976;-80
2023/12/29 09:33:00;;;;;;;834.33;769.30;;;9.50;99.90;;;;;;4975187;28;20455;-81
2023/12/29 09:35:27;;;;;;;827.50;764.27;;;9.60;99.90;;;;;;4974410;28;20489;-81
2023/12/29 09:37:54;;;;;;;827.40;763.90;;;9.60;99.90;;;;;;4974780;28;20451;-81
2023/12/29 09:40:21;;;;;;;827.00;764.40;;;9.60;99.90;;;;;;4973559;28;20459;-81
2023/12/29 09:42:49;;;;;;;832.73;768.80;;;9.60;99.90;;;;;;4974398;28;20463;-81
2023/12/29 09:45:22;;;;;;;833.60;765.77;;;9.70;99.90;;;;;;4974885;28;20450;-82
2023/12/29 09:47:52;;;;;;;828.13;764.60;;;9.90;99.90;;;;;;4974752;28;20461;-82
2023/12/29 09:50:20;;;;;;;828.80;766.30;;;9.90;99.90;;;;;;4974587;28;20451;-81
2023/12/29 09:52:49;;;;;;;840.70;778.53;;;10.00;99.90;;;;;;4974770;28;20542;-82
2023/12/29 09:55:16;;;;;;;829.67;772.13;;;10.10;99.90;;;;;;4974672;28;20490;-82
2023/12/29 09:57:44;;;;;;;813.23;759.43;;;10.20;99.90;;;;;;4974743;28;20473;-82
2023/12/29 10:00:13;;;;;;;795.13;744.53;;;10.20;99.90;;;;;;4974700;28;20546;-82
2023/12/29 10:02:40;;;;;;;769.03;724.47;;;10.30;99.90;;;;;;4974514;28;20972;-82
2023/12/29 10:05:08;;;;;;;717.20;680.10;;;10.30;99.90;;;;;;4974042;28;20817;-86
2023/12/29 10:07:40;;;;;;;700.60;667.30;;;10.20;99.90;;;;;;4974749;28;20459;-83
2023/12/29 10:10:08;;;;;;;611.43;584.90;;;10.20;99.90;;;;;;4974900;28;20549;-83
2023/12/29 10:12:37;;;;;;;657.57;628.87;;;10.30;99.90;;;;;;4974843;28;20451;-84
2023/12/29 10:15:13;;;;;;;556.80;535.70;;;10.40;99.90;;;;;;4974004;28;20479;-84
2023/12/29 10:17:51;;;;;;;506.07;487.57;;;10.50;99.90;;;;;;4974152;28;20455;-84
2023/12/29 10:20:26;;;;;;;427.03;411.93;;;10.70;99.90;;;;;;4974289;28;20977;-82
2023/12/29 10:23:04;;;;;;;403.13;389.80;;;10.80;99.90;;;;;;4974648;28;20529;-83
2023/12/29 10:25:31;;;;;;;314.73;304.73;;;10.90;99.90;;;;;;4973991;28;20889;-83
2023/12/29 10:27:58;;;;;;;255.53;247.50;;;10.90;99.90;;;;;;4973892;28;20537;-84
2023/12/29 10:30:25;;;;;;;264.40;255.17;;;10.90;99.90;;;;;;4974452;28;21011;-84
2023/12/29 10:32:53;;;;;;;311.43;301.47;;;11.00;99.90;;;;;;4974282;28;20462;-84
2023/12/29 10:35:20;;;;;;;247.10;239.10;;;11.10;99.90;;;;;;4973544;28;20518;-83
2023/12/29 10:37:47;;;;;;;217.90;210.50;;;11.20;99.90;;;;;;4973977;28;20455;-82
2023/12/29 10:40:20;;;;;;;138.37;133.53;;;11.30;99.90;;;;;;4973736;28;20517;-83
2023/12/29 10:42:53;;;;;;;128.37;123.90;;;11.40;99.90;;;;;;4974060;28;20954;-84
2023/12/29 10:45:24;;;;;;;100.07;96.27;;;11.40;99.90;;;;;;4974018;28;20455;-83
2023/12/29 10:47:51;;;;;;;83.07;80.17;;;11.60;99.90;;;;;;4973739;28;20465;-81
2023/12/29 10:50:18;;;;;;;34.03;32.43;;;11.70;99.90;;;;;;4973577;28;20454;-82
2023/12/29 10:52:46;;;;;;;46.90;44.80;;;11.80;99.90;;;;;;4973631;28;20546;-83
2023/12/29 10:55:13;;;;;;;39.90;38.20;;;11.90;99.90;;;;;;4972823;28;20478;-82
2023/12/29 10:57:42;;;;;;;34.73;33.13;;;11.90;99.90;;;;;;4973341;28;20513;-81
2023/12/29 11:00:12;;;;;;;20.33;19.33;;;12.10;99.90;;;;;;4973871;28;20486;-81
2023/12/29 11:02:39;;;;;;;18.57;17.57;;;12.20;99.90;;;;;;4973655;28;20490;-83
2023/12/29 11:05:10;;;;;;;11.63;11.03;;;12.30;99.90;;;;;;4973260;28;20459;-82
2023/12/29 11:07:39;;;;;;;13.73;12.80;;;12.40;99.90;;;;;;4973209;28;20454;-81
2023/12/29 11:10:07;;;;;;;10.73;9.90;;;12.50;99.90;;;;;;4973744;28;20455;-76
2023/12/29 11:12:35;;;;;;;11.90;11.20;;;12.40;99.90;;;;;;4973331;28;20553;-77
2023/12/29 11:15:05;;;;;;;11.20;10.07;;;12.40;99.90;;;;;;4972804;28;20487;-77
2023/12/29 11:17:36;;;;;;;7.00;6.40;;;12.50;99.90;;;;;;4973262;28;20836;-77
2023/12/29 11:20:04;;;;;;;6.40;5.80;;;12.50;99.90;;;;;;4972353;28;20790;-77
2023/12/29 11:22:32;;;;;;;9.40;4.63;;;12.70;99.90;;;;;;4973285;28;20465;-77
2023/12/29 11:25:00;;;;;;;6.93;4.20;;;12.80;98.80;;;;;;4972902;28;20837;-77
2023/12/29 11:27:30;;;;;;;7.20;4.70;;;12.70;98.70;;;;;;4973204;28;20462;-77
2023/12/29 11:29:57;;;;;;;6.30;3.43;;;12.60;98.70;;;;;;4972578;28;20455;-77
2023/12/29 11:32:36;;;;;;;4.93;3.57;;;12.40;98.60;;;;;;4972833;28;20455;-77
2023/12/29 11:35:13;;;;;;;6.60;4.00;;;12.40;98.60;;;;;;4972750;28;20492;-77
2023/12/29 11:38:01;;;;;;;5.90;3.93;;;12.40;98.60;;;;;;4972941;28;20450;-77
2023/12/29 11:40:36;;;;;;;8.67;4.90;;;12.30;98.60;;;;;;4972925;28;20537;-77
2023/12/29 11:43:09;;;;;;;7.30;4.40;;;12.30;98.60;;;;;;4972746;28;20454;-77
2023/12/29 11:45:37;;;;;;;5.20;3.60;;;12.20;98.60;;;;;;4972783;28;20458;-77
2023/12/29 11:48:06;;;;;;;7.00;4.40;;;12.00;98.40;;;;;;4972661;28;20461;-76
2023/12/29 11:50:36;;;;;;;5.83;3.30;;;11.90;98.40;;;;;;4972918;28;20490;-77
2023/12/29 11:53:03;;;;;;;6.90;5.50;;;11.70;99.90;;;;;;4972825;28;20454;-76
2023/12/29 11:55:31;;;;;;;12.17;11.47;;;11.70;99.90;;;;;;4972299;28;20570;-76
2023/12/29 11:57:59;;;;;;;12.50;11.77;;;11.60;99.90;;;;;;4972582;28;20522;-76
2023/12/29 12:00:46;;;;;;;14.60;13.57;;;11.60;99.90;;;;;;4972709;28;20970;-76
2023/12/29 12:03:20;;;;;;;21.60;20.50;;;11.60;99.90;;;;;;4972542;28;20462;-77
2023/12/29 12:05:48;;;;;;;18.07;16.87;;;11.60;99.90;;;;;;4972595;28;20961;-77
2023/12/29 12:08:31;;;;;;;15.97;15.00;;;11.70;99.90;;;;;;4976653;28;20459;-76
2023/12/29 12:11:19;;;;;;;23.23;21.90;;;11.70;99.90;;;;;;4976855;28;20501;-77
2023/12/29 12:13:47;;;;;;;9.77;8.70;;;11.70;99.90;;;;;;4976704;28;20458;-76
2023/12/29 12:16:50;;;;;;;17.07;16.10;;;11.60;99.90;;;;;;4976132;28;20795;-76
2023/12/29 12:19:20;;;;;;;34.17;32.80;;;11.60;99.90;;;;;;4976391;28;20542;-76
2023/12/29 12:21:49;;;;;;;52.43;49.93;;;11.50;99.90;;;;;;4976417;28;20948;-77
2023/12/29 12:24:19;;;;;;;45.70;43.63;;;11.50;99.90;;;;;;4976075;28;20459;-77
2023/12/29 12:26:46;;;;;;;64.83;62.43;;;11.40;99.90;;;;;;4976137;28;20451;-76
2023/12/29 12:29:14;;;;;;;78.43;75.63;;;11.40;99.90;;;;;;4976277;28;20543;-76
2023/12/29 12:31:53;;;;;;;93.77;90.33;;;11.40;99.90;;;;;;4976359;28;20450;-76
2023/12/29 12:34:21;;;;;;;120.87;116.40;;;11.30;99.90;;;;;;4975912;28;20930;-77
2023/12/29 12:36:53;;;;;;;138.40;133.63;;;11.20;99.90;;;;;;4976315;28;20454;-76
2023/12/29 12:39:20;;;;;;;162.97;157.20;;;11.10;99.90;;;;;;4975943;28;20446;-76